Time;durP1;ratioP1;P1;durP2;ratioP2;P2;SDS_P1;SDS_P2;PMS_P1;PMS_P2;Temp;Humidity;BMP_temperature;BMP_pressure;BME280_temperature;BME280_humidity;BME280_pressure;Samples;Min_cycle;Max_cycle;Signal;HPM_P1;HPM_P2
2024/03/06 00:02:24;;;;;;;19.73;9.23;;;2.50;99.90;;;;;;5001897;28;20026;-70
2024/03/06 00:04:50;;;;;;;22.88;10.52;;;2.50;99.90;;;;;;5002945;28;20030;-70
2024/03/06 00:07:16;;;;;;;17.38;8.95;;;2.50;99.90;;;;;;5003645;28;20422;-70
2024/03/06 00:09:42;;;;;;;18.00;8.60;;;2.50;99.90;;;;;;4998340;28;20029;-70
2024/03/06 00:12:08;;;;;;;20.50;9.90;;;2.50;99.90;;;;;;4992386;28;20045;-70
2024/03/06 00:14:36;;;;;;;20.52;9.95;;;2.50;99.90;;;;;;4992228;28;20037;-70
2024/03/06 00:17:04;;;;;;;21.40;9.27;;;2.50;99.90;;;;;;4996881;28;20038;-71
2024/03/06 00:19:30;;;;;;;24.55;9.68;;;2.50;99.90;;;;;;4995420;28;20034;-70
2024/03/06 00:21:56;;;;;;;18.50;9.68;;;2.40;99.90;;;;;;4986593;28;20121;-70
2024/03/06 00:24:25;;;;;;;18.95;10.30;;;2.40;99.90;;;;;;4992606;28;20750;-70
2024/03/06 00:26:51;;;;;;;22.00;9.63;;;2.40;99.90;;;;;;4993756;28;20037;-71
2024/03/06 00:29:17;;;;;;;21.90;10.10;;;2.40;99.90;;;;;;4984361;28;20038;-71
2024/03/06 00:31:44;;;;;;;20.30;9.77;;;2.40;99.90;;;;;;4995995;28;20026;-70
2024/03/06 00:34:11;;;;;;;17.75;10.35;;;2.40;99.90;;;;;;4997428;28;20034;-70
2024/03/06 00:36:37;;;;;;;23.42;9.90;;;2.30;99.90;;;;;;4987570;28;20029;-70
2024/03/06 00:39:04;;;;;;;17.10;9.13;;;2.30;99.90;;;;;;4991031;28;20042;-70
2024/03/06 00:41:31;;;;;;;21.77;9.32;;;2.30;99.90;;;;;;4986899;28;20526;-70
2024/03/06 00:43:57;;;;;;;17.65;9.77;;;2.30;99.90;;;;;;4998036;28;20045;-71
2024/03/06 00:46:23;;;;;;;24.98;9.73;;;2.30;99.90;;;;;;4995774;28;20026;-71
2024/03/06 00:48:48;;;;;;;19.73;9.52;;;2.30;99.90;;;;;;4994304;28;20026;-71
2024/03/06 00:51:14;;;;;;;23.60;10.77;;;2.30;99.90;;;;;;4987728;28;20034;-71
2024/03/06 00:53:40;;;;;;;19.95;10.73;;;2.20;99.90;;;;;;4996012;28;20026;-71
2024/03/06 00:56:07;;;;;;;21.02;9.65;;;2.30;99.90;;;;;;4989402;28;20038;-70
2024/03/06 00:58:33;;;;;;;25.08;10.50;;;2.20;99.90;;;;;;4988350;28;20494;-70
2024/03/06 01:00:59;;;;;;;18.55;9.57;;;2.20;99.90;;;;;;4993759;28;20040;-71
2024/03/06 01:03:25;;;;;;;22.00;10.77;;;2.20;99.90;;;;;;4996502;28;20030;-71
2024/03/06 01:05:53;;;;;;;19.08;9.88;;;2.20;99.90;;;;;;4989117;28;20046;-70
2024/03/06 01:08:19;;;;;;;22.50;10.27;;;2.10;99.90;;;;;;4989473;28;20043;-70
2024/03/06 01:10:45;;;;;;;23.52;9.85;;;2.10;99.90;;;;;;4993225;28;20091;-71
2024/03/06 01:13:11;;;;;;;22.70;11.05;;;2.10;99.90;;;;;;4992155;28;20034;-71
2024/03/06 01:15:38;;;;;;;27.23;12.40;;;2.00;99.90;;;;;;4996522;28;20025;-70
2024/03/06 01:18:04;;;;;;;20.45;10.70;;;2.00;99.90;;;;;;4991796;28;20034;-70
2024/03/06 01:20:30;;;;;;;21.58;11.23;;;2.00;99.90;;;;;;4985682;28;20061;-70
2024/03/06 01:22:56;;;;;;;20.25;10.57;;;2.00;99.90;;;;;;4989389;28;20905;-70
2024/03/06 01:25:21;;;;;;;24.88;11.38;;;2.00;99.90;;;;;;4985592;28;20034;-70
2024/03/06 01:27:51;;;;;;;22.00;10.57;;;2.00;99.90;;;;;;4991784;28;20037;-70
2024/03/06 01:30:17;;;;;;;27.92;12.50;;;1.90;99.90;;;;;;4991433;28;20100;-71
2024/03/06 01:32:42;;;;;;;22.98;10.70;;;2.00;99.90;;;;;;4993890;28;20106;-70
2024/03/06 01:35:08;;;;;;;18.08;10.18;;;1.90;99.90;;;;;;4985776;28;20033;-71
2024/03/06 01:37:34;;;;;;;23.05;10.88;;;1.80;99.90;;;;;;4994362;28;20030;-71
2024/03/06 01:40:00;;;;;;;24.27;11.90;;;1.80;99.90;;;;;;4989536;28;20026;-71
2024/03/06 01:42:26;;;;;;;18.77;10.10;;;1.80;99.90;;;;;;4992351;28;20034;-71
2024/03/06 01:44:53;;;;;;;23.08;11.25;;;1.80;99.90;;;;;;4987870;28;20034;-70
2024/03/06 01:47:18;;;;;;;25.15;11.10;;;1.80;99.90;;;;;;4989332;28;20057;-71
2024/03/06 01:49:44;;;;;;;24.88;10.95;;;1.80;99.90;;;;;;4985931;28;20545;-70
2024/03/06 01:52:14;;;;;;;31.63;11.50;;;1.80;99.90;;;;;;4991908;28;20112;-70
2024/03/06 01:54:41;;;;;;;24.92;11.25;;;1.70;99.90;;;;;;4989595;28;20057;-70
2024/03/06 01:57:08;;;;;;;25.50;11.82;;;1.70;99.90;;;;;;4991128;28;20110;-70
2024/03/06 01:59:34;;;;;;;23.63;11.32;;;1.70;99.90;;;;;;4992154;28;20025;-70
2024/03/06 02:02:04;;;;;;;26.05;13.13;;;1.70;99.90;;;;;;4992453;28;20572;-70
2024/03/06 02:04:30;;;;;;;27.73;14.05;;;1.70;99.90;;;;;;4988515;28;20041;-71
2024/03/06 02:06:56;;;;;;;24.27;12.90;;;1.70;99.90;;;;;;4989941;28;20038;-70
2024/03/06 02:09:23;;;;;;;24.77;11.32;;;1.70;99.90;;;;;;4988624;28;20035;-70
2024/03/06 02:11:53;;;;;;;22.67;12.25;;;1.70;99.90;;;;;;4991439;28;20049;-70
2024/03/06 02:14:19;;;;;;;23.38;10.75;;;1.70;99.90;;;;;;4991900;28;20100;-70
2024/03/06 02:16:45;;;;;;;24.73;11.63;;;1.70;99.90;;;;;;4996538;28;20037;-71
2024/03/06 02:19:11;;;;;;;21.95;11.05;;;1.70;99.90;;;;;;4984039;28;20085;-71
2024/03/06 02:21:37;;;;;;;27.52;12.25;;;1.60;99.90;;;;;;4990877;28;20022;-71
2024/03/06 02:24:03;;;;;;;25.80;11.25;;;1.70;99.90;;;;;;4991646;28;20027;-71
2024/03/06 02:26:29;;;;;;;25.58;12.20;;;1.60;99.90;;;;;;4989820;28;20060;-70
2024/03/06 02:28:55;;;;;;;20.55;10.80;;;1.60;99.90;;;;;;4994579;28;20771;-70
2024/03/06 02:31:22;;;;;;;30.42;12.68;;;1.60;99.90;;;;;;4996264;28;20033;-71
2024/03/06 02:33:49;;;;;;;27.70;12.35;;;1.60;99.90;;;;;;4992074;28;20038;-70
2024/03/06 02:36:18;;;;;;;26.17;11.93;;;1.60;99.90;;;;;;4989201;28;20034;-71
2024/03/06 02:38:45;;;;;;;24.17;11.88;;;1.60;99.90;;;;;;4986792;28;20021;-71
2024/03/06 02:41:13;;;;;;;21.52;11.10;;;1.60;99.90;;;;;;4982920;28;20225;-71
2024/03/06 02:43:39;;;;;;;24.70;10.88;;;1.60;99.90;;;;;;4988904;28;20038;-71
2024/03/06 02:46:05;;;;;;;19.73;10.30;;;1.60;99.90;;;;;;4999651;28;20032;-70
2024/03/06 02:48:32;;;;;;;20.30;10.00;;;1.60;99.90;;;;;;4989671;28;20053;-70
2024/03/06 02:50:59;;;;;;;21.48;11.13;;;1.50;99.90;;;;;;4989074;28;20027;-71
2024/03/06 02:53:26;;;;;;;22.02;10.52;;;1.60;99.90;;;;;;4996353;28;20390;-70
2024/03/06 02:55:52;;;;;;;21.38;10.20;;;1.50;99.90;;;;;;4995272;28;20038;-71
2024/03/06 02:58:18;;;;;;;20.58;10.35;;;1.60;99.90;;;;;;4990113;28;20030;-70
2024/03/06 03:00:44;;;;;;;19.10;9.98;;;1.60;99.90;;;;;;4993759;28;20064;-71
2024/03/06 03:03:11;;;;;;;19.05;10.55;;;1.60;99.90;;;;;;4983594;28;20758;-70
2024/03/06 03:05:39;;;;;;;18.23;9.40;;;1.60;99.90;;;;;;4990000;28;20029;-70
2024/03/06 03:08:05;;;;;;;21.00;10.52;;;1.70;99.90;;;;;;4997125;28;20045;-71
2024/03/06 03:10:31;;;;;;;22.83;10.45;;;1.70;99.90;;;;;;4984962;28;20548;-71
2024/03/06 03:12:57;;;;;;;22.13;10.18;;;1.70;99.90;;;;;;4991450;28;20030;-71
2024/03/06 03:15:23;;;;;;;21.13;10.90;;;1.80;99.90;;;;;;4996511;28;20030;-71
2024/03/06 03:17:49;;;;;;;19.42;9.85;;;1.80;99.90;;;;;;4987337;28;20026;-71
2024/03/06 03:20:16;;;;;;;25.73;10.90;;;1.70;99.90;;;;;;4994658;28;20030;-70
2024/03/06 03:22:43;;;;;;;19.08;10.07;;;1.70;99.90;;;;;;4993053;28;20200;-70
2024/03/06 03:25:11;;;;;;;20.17;10.45;;;1.70;99.90;;;;;;4984365;28;20092;-71
2024/03/06 03:27:38;;;;;;;21.17;11.00;;;1.70;99.90;;;;;;4989054;28;20030;-70
2024/03/06 03:30:08;;;;;;;16.88;8.98;;;1.70;99.90;;;;;;4998289;28;20037;-70
2024/03/06 03:32:34;;;;;;;21.85;10.13;;;1.70;99.90;;;;;;4989302;28;20022;-71
2024/03/06 03:35:00;;;;;;;23.85;9.45;;;1.60;99.90;;;;;;4987949;28;20031;-71
2024/03/06 03:37:27;;;;;;;20.60;9.90;;;1.60;99.90;;;;;;4999051;28;20033;-70
2024/03/06 03:39:54;;;;;;;21.15;10.50;;;1.60;99.90;;;;;;4991276;28;20085;-70
2024/03/06 03:42:20;;;;;;;21.17;9.50;;;1.60;99.90;;;;;;4993482;28;20121;-70
2024/03/06 03:44:46;;;;;;;19.67;9.85;;;1.70;99.90;;;;;;4995906;28;20034;-70
2024/03/06 03:47:12;;;;;;;23.52;10.73;;;1.70;99.90;;;;;;4992045;28;20535;-70
2024/03/06 03:49:38;;;;;;;19.45;9.90;;;1.70;99.90;;;;;;4992478;28;20026;-70
2024/03/06 03:52:04;;;;;;;25.58;11.30;;;1.70;99.90;;;;;;4995057;28;20054;-70
2024/03/06 03:54:30;;;;;;;19.85;9.85;;;1.70;99.90;;;;;;4989975;28;20038;-70
2024/03/06 03:56:56;;;;;;;22.48;10.45;;;1.70;99.90;;;;;;4996951;28;20044;-71
2024/03/06 03:59:22;;;;;;;23.35;10.57;;;1.70;99.90;;;;;;4997032;28;20030;-71
2024/03/06 04:01:48;;;;;;;21.92;9.93;;;1.70;99.90;;;;;;4994241;28;20096;-71
2024/03/06 04:04:14;;;;;;;23.10;10.40;;;1.70;99.90;;;;;;4990921;28;20042;-70
2024/03/06 04:06:39;;;;;;;20.23;10.23;;;1.70;99.90;;;;;;4998928;28;20042;-71
2024/03/06 04:09:05;;;;;;;18.60;9.77;;;1.70;99.90;;;;;;4991392;28;20034;-70
2024/03/06 04:11:36;;;;;;;23.38;11.35;;;1.70;99.90;;;;;;4991802;28;20108;-70
2024/03/06 04:14:01;;;;;;;21.75;10.38;;;1.70;99.90;;;;;;4995392;28;20733;-70
2024/03/06 04:16:27;;;;;;;22.63;10.55;;;1.70;99.90;;;;;;4992388;28;20061;-70
2024/03/06 04:18:53;;;;;;;20.90;10.40;;;1.70;99.90;;;;;;4994380;28;20034;-70
2024/03/06 04:21:19;;;;;;;20.02;10.02;;;1.70;99.90;;;;;;4988327;28;20110;-70
2024/03/06 04:23:45;;;;;;;17.05;9.98;;;1.70;99.90;;;;;;4994013;28;20486;-70
2024/03/06 04:26:10;;;;;;;22.08;10.48;;;1.80;99.90;;;;;;4994735;28;20045;-70
2024/03/06 04:28:36;;;;;;;21.77;10.05;;;1.90;99.90;;;;;;4997192;28;20022;-70
2024/03/06 04:31:02;;;;;;;23.30;10.30;;;2.00;99.90;;;;;;4987654;28;20031;-70
2024/03/06 04:33:28;;;;;;;22.55;10.57;;;2.00;99.90;;;;;;4994980;28;20053;-70
2024/03/06 04:35:54;;;;;;;22.45;9.90;;;2.00;99.90;;;;;;4994761;28;20131;-70
2024/03/06 04:38:20;;;;;;;20.35;9.85;;;2.10;99.90;;;;;;4995403;28;20084;-70
2024/03/06 04:40:45;;;;;;;21.95;9.77;;;2.10;99.90;;;;;;4995718;28;20030;-70
2024/03/06 04:43:11;;;;;;;20.77;9.65;;;2.10;99.90;;;;;;4997303;28;20643;-71
2024/03/06 04:45:37;;;;;;;23.67;10.63;;;2.00;99.90;;;;;;4990786;28;20493;-71
2024/03/06 04:48:03;;;;;;;23.13;10.38;;;2.00;99.90;;;;;;4995240;28;20036;-71
2024/03/06 04:50:29;;;;;;;18.40;9.60;;;2.00;99.90;;;;;;4993063;28;20065;-71
2024/03/06 04:52:56;;;;;;;21.75;9.73;;;1.90;99.90;;;;;;4992982;28;20023;-71
2024/03/06 04:55:22;;;;;;;19.75;11.00;;;1.90;99.90;;;;;;4997601;28;20731;-71
2024/03/06 04:57:49;;;;;;;22.48;10.20;;;1.90;99.90;;;;;;4994339;28;20060;-71
2024/03/06 05:00:15;;;;;;;25.98;11.55;;;1.80;99.90;;;;;;4999095;28;20962;-72
2024/03/06 05:02:42;;;;;;;20.80;10.35;;;1.80;99.90;;;;;;4993758;28;20030;-72
2024/03/06 05:05:08;;;;;;;22.67;10.68;;;1.70;99.90;;;;;;4994782;28;20403;-72
2024/03/06 05:07:34;;;;;;;20.30;9.50;;;1.70;99.90;;;;;;4999001;28;20029;-72
2024/03/06 05:10:00;;;;;;;19.77;10.07;;;1.70;99.90;;;;;;4993185;28;20474;-72
2024/03/06 05:12:28;;;;;;;20.73;10.20;;;1.60;99.90;;;;;;4997675;28;20065;-72
2024/03/06 05:14:54;;;;;;;21.45;10.43;;;1.60;99.90;;;;;;4994954;28;20038;-72
2024/03/06 05:17:21;;;;;;;18.20;8.95;;;1.50;99.90;;;;;;4995719;28;20045;-73
2024/03/06 05:19:48;;;;;;;18.77;10.13;;;1.50;99.90;;;;;;4988990;28;20034;-72
2024/03/06 05:22:15;;;;;;;26.38;11.13;;;1.50;99.90;;;;;;4989431;28;20041;-72
2024/03/06 05:24:42;;;;;;;23.63;11.45;;;1.50;99.90;;;;;;4984462;28;20034;-72
2024/03/06 05:27:09;;;;;;;22.42;11.00;;;1.50;99.90;;;;;;4999612;28;20099;-72
2024/03/06 05:29:36;;;;;;;25.23;11.55;;;1.50;99.90;;;;;;4994836;28;20036;-72
2024/03/06 05:32:03;;;;;;;22.50;10.13;;;1.50;99.90;;;;;;4990831;28;20042;-72
2024/03/06 05:34:32;;;;;;;27.80;11.15;;;1.40;99.90;;;;;;4994060;28;20058;-72
2024/03/06 05:36:58;;;;;;;27.23;11.60;;;1.40;99.90;;;;;;4988307;28;20061;-72
2024/03/06 05:39:24;;;;;;;27.63;12.55;;;1.40;99.90;;;;;;4996002;28;20153;-72
2024/03/06 05:41:49;;;;;;;31.50;13.80;;;1.40;99.90;;;;;;4998115;28;20049;-72
2024/03/06 05:44:15;;;;;;;29.15;12.63;;;1.30;99.90;;;;;;4991595;28;20029;-72
2024/03/06 05:46:41;;;;;;;29.20;12.13;;;1.30;99.90;;;;;;4992047;28;20289;-72
2024/03/06 05:49:07;;;;;;;29.80;13.27;;;1.40;99.90;;;;;;4998706;28;20034;-72
2024/03/06 05:51:33;;;;;;;33.65;14.25;;;1.30;99.90;;;;;;4989403;28;20030;-72
2024/03/06 05:53:59;;;;;;;27.38;13.43;;;1.30;99.90;;;;;;4994220;28;20168;-72
2024/03/06 05:56:24;;;;;;;28.00;12.90;;;1.40;99.90;;;;;;4990467;28;20033;-72
2024/03/06 05:58:50;;;;;;;29.75;13.50;;;1.30;99.90;;;;;;4991495;28;20507;-72
2024/03/06 06:01:20;;;;;;;23.42;11.50;;;1.30;99.90;;;;;;4988941;28;20040;-72
2024/03/06 06:03:49;;;;;;;32.25;12.35;;;1.20;99.90;;;;;;4989108;28;20026;-72
2024/03/06 06:06:15;;;;;;;21.00;10.35;;;1.20;99.90;;;;;;4988056;28;20038;-72
2024/03/06 06:08:41;;;;;;;26.65;11.60;;;1.20;99.90;;;;;;4988868;28;20037;-72
2024/03/06 06:11:07;;;;;;;23.95;11.68;;;1.20;99.90;;;;;;4992198;28;20022;-72
2024/03/06 06:13:33;;;;;;;22.63;11.90;;;1.20;99.90;;;;;;4992647;28;20033;-72
2024/03/06 06:16:02;;;;;;;25.95;12.05;;;1.30;99.90;;;;;;4983115;28;20038;-72
2024/03/06 06:18:28;;;;;;;24.10;11.25;;;1.20;99.90;;;;;;4993189;28;20038;-72
2024/03/06 06:20:54;;;;;;;27.25;11.85;;;1.30;99.90;;;;;;4989908;28;20618;-72
2024/03/06 06:23:20;;;;;;;27.95;12.07;;;1.30;99.90;;;;;;4988775;28;20030;-72
2024/03/06 06:25:46;;;;;;;28.02;11.55;;;1.30;99.90;;;;;;4997722;28;20576;-72
2024/03/06 06:28:12;;;;;;;26.25;11.75;;;1.40;99.90;;;;;;4995529;28;20044;-72
2024/03/06 06:30:41;;;;;;;28.52;11.23;;;1.40;99.90;;;;;;4978837;28;20034;-72
2024/03/06 06:33:08;;;;;;;28.65;12.18;;;1.50;99.90;;;;;;4985042;28;20657;-72
2024/03/06 06:35:34;;;;;;;26.52;12.38;;;1.60;99.90;;;;;;4991666;28;20057;-72
2024/03/06 06:38:01;;;;;;;22.10;10.95;;;1.50;99.90;;;;;;4993420;28;20038;-72
2024/03/06 06:40:27;;;;;;;27.25;12.13;;;1.50;99.90;;;;;;4993693;28;20026;-72
2024/03/06 06:42:53;;;;;;;28.92;12.20;;;1.50;99.90;;;;;;4994100;28;20489;-72
2024/03/06 06:45:21;;;;;;;23.90;12.35;;;1.60;99.90;;;;;;4988296;28;20141;-72
2024/03/06 06:47:49;;;;;;;23.10;11.82;;;1.60;99.90;;;;;;4988448;28;20034;-72
2024/03/06 06:50:15;;;;;;;18.85;10.32;;;1.70;99.90;;;;;;4984955;28;20069;-71
2024/03/06 06:52:42;;;;;;;20.35;11.23;;;1.70;99.90;;;;;;4990718;28;20030;-72
2024/03/06 06:55:11;;;;;;;24.08;10.98;;;1.80;99.90;;;;;;4993887;28;20506;-72
2024/03/06 06:57:37;;;;;;;25.05;11.13;;;1.90;99.90;;;;;;4992551;28;20041;-72
2024/03/06 07:00:10;;;;;;;19.63;11.00;;;2.00;99.90;;;;;;4987653;28;20124;-72
2024/03/06 07:02:38;;;;;;;23.27;11.40;;;2.10;99.90;;;;;;4994608;28;20026;-71
2024/03/06 07:05:05;;;;;;;26.20;11.82;;;2.10;99.90;;;;;;4997417;28;20120;-71
2024/03/06 07:07:31;;;;;;;22.48;12.23;;;2.20;99.90;;;;;;4996258;28;20037;-71
2024/03/06 07:09:57;;;;;;;27.20;12.82;;;2.30;99.90;;;;;;4999917;28;20026;-71
2024/03/06 07:12:23;;;;;;;27.83;12.43;;;2.50;99.90;;;;;;4994985;28;20550;-71
2024/03/06 07:14:49;;;;;;;27.58;13.75;;;2.60;99.90;;;;;;4987889;28;20485;-71
2024/03/06 07:17:15;;;;;;;26.85;13.85;;;2.60;99.90;;;;;;4999069;28;20037;-70
2024/03/06 07:19:41;;;;;;;29.80;13.75;;;2.80;99.90;;;;;;4997646;28;20030;-70
2024/03/06 07:22:07;;;;;;;28.42;13.13;;;2.80;99.90;;;;;;4997390;28;20419;-74
2024/03/06 07:24:33;;;;;;;24.27;11.57;;;2.90;99.90;;;;;;5001151;28;20172;-70
2024/03/06 07:27:01;;;;;;;31.23;13.93;;;3.00;99.90;;;;;;4999821;28;20023;-70
2024/03/06 07:29:27;;;;;;;33.10;13.38;;;3.10;99.90;;;;;;4990184;28;20708;-70
2024/03/06 07:31:53;;;;;;;25.77;14.50;;;3.20;99.90;;;;;;5000026;28;20482;-70
2024/03/06 07:34:22;;;;;;;26.15;13.93;;;3.30;99.90;;;;;;4992869;28;20065;-70
2024/03/06 07:36:49;;;;;;;28.20;14.75;;;3.40;99.90;;;;;;4997472;28;20087;-70
2024/03/06 07:39:19;;;;;;;24.55;12.85;;;3.50;99.90;;;;;;4994061;28;20081;-70
2024/03/06 07:41:45;;;;;;;34.88;15.23;;;3.60;99.90;;;;;;4995350;28;20520;-69
2024/03/06 07:44:11;;;;;;;29.60;14.18;;;3.80;99.90;;;;;;4983289;28;20117;-69
2024/03/06 07:46:37;;;;;;;27.88;14.48;;;4.20;99.90;;;;;;4997813;28;20122;-69
2024/03/06 07:49:04;;;;;;;30.45;15.13;;;4.70;99.90;;;;;;4998371;28;20113;-69
2024/03/06 07:51:33;;;;;;;31.70;14.20;;;5.40;99.90;;;;;;4995781;28;20118;-69
2024/03/06 07:54:00;;;;;;;31.92;14.52;;;6.30;99.90;;;;;;4997519;28;20034;-69
2024/03/06 07:56:26;;;;;;;31.60;13.80;;;7.00;99.90;;;;;;4996110;28;20032;-70
2024/03/06 07:58:53;;;;;;;27.75;13.88;;;7.80;99.90;;;;;;4987066;28;20042;-70
2024/03/06 08:01:20;;;;;;;21.50;11.45;;;8.50;99.90;;;;;;4996866;28;20152;-70
2024/03/06 08:03:47;;;;;;;23.25;13.68;;;9.00;99.90;;;;;;4989877;28;20058;-70
2024/03/06 08:06:15;;;;;;;34.67;16.88;;;9.60;99.90;;;;;;4997884;28;20034;-69
2024/03/06 08:08:43;;;;;;;42.45;18.35;;;9.90;99.90;;;;;;4997385;28;20061;-69
2024/03/06 08:11:11;;;;;;;30.23;14.82;;;10.10;99.90;;;;;;4996663;28;20025;-69
2024/03/06 08:13:40;;;;;;;26.60;13.80;;;10.00;99.90;;;;;;4987831;28;20042;-76
2024/03/06 08:16:07;;;;;;;31.35;13.02;;;9.90;99.90;;;;;;4992936;28;20116;-75
2024/03/06 08:18:33;;;;;;;26.80;14.38;;;9.80;99.90;;;;;;4993031;28;20608;-75
2024/03/06 08:20:59;;;;;;;24.58;13.02;;;9.60;99.90;;;;;;4968585;28;20425;-75
2024/03/06 08:23:25;;;;;;;32.95;17.10;;;9.50;99.90;;;;;;4995929;28;20490;-74
2024/03/06 08:25:52;;;;;;;30.48;15.70;;;9.30;99.90;;;;;;4997132;28;20046;-75
2024/03/06 08:28:18;;;;;;;30.25;16.13;;;9.30;99.90;;;;;;4991710;28;20038;-76
2024/03/06 08:30:44;;;;;;;28.15;16.05;;;9.30;99.90;;;;;;4991099;28;20492;-75
2024/03/06 08:33:11;;;;;;;26.35;15.35;;;9.40;99.90;;;;;;4990171;28;20048;-75
2024/03/06 08:35:37;;;;;;;29.33;13.32;;;9.50;99.90;;;;;;4991844;28;20033;-75
2024/03/06 08:38:03;;;;;;;19.83;12.38;;;9.40;99.90;;;;;;4992515;28;20038;-75
2024/03/06 08:40:29;;;;;;;20.10;10.90;;;9.30;99.90;;;;;;4991411;28;20033;-75
2024/03/06 08:42:56;;;;;;;20.27;11.35;;;9.30;99.90;;;;;;4985456;28;20072;-75
2024/03/06 08:45:23;;;;;;;18.70;11.85;;;9.30;99.90;;;;;;4993464;28;20049;-75
2024/03/06 08:47:49;;;;;;;22.42;12.45;;;9.40;99.90;;;;;;4997284;28;20033;-75
2024/03/06 08:50:15;;;;;;;20.55;12.32;;;9.60;99.90;;;;;;4994144;28;20588;-75
2024/03/06 08:52:42;;;;;;;19.85;11.02;;;9.60;99.90;;;;;;4990994;28;20022;-75
2024/03/06 08:55:08;;;;;;;23.20;12.38;;;9.40;99.90;;;;;;5000441;28;20026;-75
2024/03/06 08:57:37;;;;;;;21.38;11.52;;;9.20;99.90;;;;;;4989578;28;20744;-75
2024/03/06 09:00:04;;;;;;;25.48;12.25;;;9.20;99.90;;;;;;4984753;28;20026;-75
2024/03/06 09:02:30;;;;;;;24.20;12.20;;;9.30;99.90;;;;;;4992640;28;20034;-76
2024/03/06 09:04:56;;;;;;;21.23;11.95;;;9.50;99.90;;;;;;4993383;28;20030;-76
2024/03/06 09:07:23;;;;;;;20.67;12.60;;;9.50;99.90;;;;;;4994961;28;20062;-75
2024/03/06 09:09:52;;;;;;;20.15;10.95;;;9.60;99.90;;;;;;5010188;28;20030;-75
2024/03/06 09:12:18;;;;;;;18.67;11.10;;;9.70;99.40;;;;;;5012839;28;20477;-76
2024/03/06 09:14:44;;;;;;;17.45;11.57;;;10.10;99.70;;;;;;5013336;28;20025;-75
2024/03/06 09:17:14;;;;;;;17.65;11.10;;;10.60;98.40;;;;;;5012780;28;20046;-75
2024/03/06 09:19:41;;;;;;;19.88;10.50;;;11.10;97.60;;;;;;5015769;28;20037;-75
2024/03/06 09:22:07;;;;;;;22.02;11.68;;;11.60;96.30;;;;;;5033187;28;20113;-74
2024/03/06 09:24:38;;;;;;;21.05;11.93;;;12.00;94.70;;;;;;5016147;28;20063;-75
2024/03/06 09:27:04;;;;;;;16.65;10.10;;;12.50;93.90;;;;;;5011350;28;20060;-75
2024/03/06 09:29:30;;;;;;;17.55;10.18;;;13.10;93.30;;;;;;5017336;28;20025;-76
2024/03/06 09:31:56;;;;;;;17.08;10.30;;;13.70;91.40;;;;;;5010794;28;20386;-76
2024/03/06 09:34:23;;;;;;;20.13;9.20;;;14.20;88.30;;;;;;5013374;28;20033;-76
2024/03/06 09:36:50;;;;;;;15.60;9.57;;;14.30;86.30;;;;;;5012807;28;20045;-76
2024/03/06 09:39:19;;;;;;;17.15;9.85;;;14.00;86.50;;;;;;5014466;28;20125;-75
2024/03/06 09:41:52;;;;;;;14.88;8.90;;;13.60;85.60;;;;;;5015264;28;20572;-75
2024/03/06 09:44:18;;;;;;;16.23;9.80;;;12.90;86.10;;;;;;5016500;28;20056;-75
2024/03/06 09:46:45;;;;;;;17.23;10.57;;;12.40;89.80;;;;;;5014261;28;20025;-75
2024/03/06 09:49:14;;;;;;;16.35;9.93;;;12.10;90.50;;;;;;5012256;28;20029;-76
2024/03/06 09:51:45;;;;;;;18.88;9.82;;;12.00;90.60;;;;;;5018552;28;20029;-75
2024/03/06 09:54:14;;;;;;;18.08;10.38;;;12.40;90.90;;;;;;5012991;28;20099;-73
2024/03/06 09:56:47;;;;;;;21.40;9.32;;;12.80;89.00;;;;;;5014774;28;20030;-75
2024/03/06 09:59:14;;;;;;;16.40;9.27;;;13.30;86.30;;;;;;5011697;28;20040;-75
2024/03/06 10:01:56;;;;;;;14.30;9.05;;;13.40;85.90;;;;;;5013954;28;20037;-75
2024/03/06 10:04:24;;;;;;;15.88;9.02;;;13.40;84.20;;;;;;5010230;28;20051;-75
2024/03/06 10:06:59;;;;;;;12.57;8.23;;;13.60;84.40;;;;;;5017408;28;20755;-75
2024/03/06 10:09:27;;;;;;;13.07;7.57;;;14.20;83.20;;;;;;5013919;28;20071;-75
2024/03/06 10:11:53;;;;;;;13.32;7.72;;;14.90;78.20;;;;;;5011578;28;20044;-74
2024/03/06 10:14:20;;;;;;;11.40;7.90;;;15.40;74.40;;;;;;5015159;28;20022;-76
2024/03/06 10:16:56;;;;;;;16.00;8.63;;;16.10;71.50;;;;;;5012960;28;20037;-70
2024/03/06 10:19:24;;;;;;;13.52;8.30;;;16.60;70.90;;;;;;5013996;28;20030;-75
2024/03/06 10:21:51;;;;;;;13.50;7.80;;;16.90;69.70;;;;;;5009169;28;20096;-75
2024/03/06 10:24:20;;;;;;;12.40;7.88;;;17.20;66.40;;;;;;5016450;28;20037;-75
2024/03/06 10:26:47;;;;;;;13.35;8.50;;;17.40;64.30;;;;;;5018024;28;20044;-75
2024/03/06 10:29:19;;;;;;;9.30;6.38;;;17.70;64.20;;;;;;5017192;28;20026;-75
2024/03/06 10:32:00;;;;;;;10.65;6.25;;;18.30;61.70;;;;;;5013939;28;20026;-75
2024/03/06 10:34:27;;;;;;;12.15;6.60;;;18.40;59.50;;;;;;5012439;28;20036;-75
2024/03/06 10:36:59;;;;;;;11.50;6.60;;;18.20;59.40;;;;;;5017591;28;20033;-75
2024/03/06 10:39:26;;;;;;;8.88;6.10;;;17.60;58.30;;;;;;5026066;28;20120;-75
2024/03/06 10:41:58;;;;;;;9.20;6.05;;;16.60;61.20;;;;;;5017980;28;20034;-75
2024/03/06 10:44:27;;;;;;;10.63;6.53;;;15.50;62.30;;;;;;5018666;28;20132;-75
2024/03/06 10:47:00;;;;;;;8.48;5.90;;;14.30;65.30;;;;;;5013519;28;20042;-75
2024/03/06 10:49:30;;;;;;;7.82;5.20;;;13.80;68.60;;;;;;5015600;28;20030;-75
2024/03/06 10:52:00;;;;;;;7.88;5.55;;;14.60;69.10;;;;;;5016868;28;20567;-74
2024/03/06 10:54:30;;;;;;;13.05;5.65;;;15.80;63.90;;;;;;5014133;28;20045;-74
2024/03/06 10:56:56;;;;;;;7.90;5.05;;;16.40;60.60;;;;;;5013334;28;20069;-74
2024/03/06 10:59:28;;;;;;;7.80;4.97;;;17.10;59.00;;;;;;5014171;28;20100;-76
2024/03/06 11:02:02;;;;;;;8.90;5.47;;;17.90;57.90;;;;;;5013873;28;20034;-75
2024/03/06 11:04:30;;;;;;;10.40;5.05;;;18.70;55.60;;;;;;5018594;28;20041;-74
2024/03/06 11:06:57;;;;;;;12.25;7.38;;;19.50;55.00;;;;;;5019434;28;20033;-74
2024/03/06 11:09:23;;;;;;;12.25;7.82;;;18.90;55.00;;;;;;5017956;28;20108;-74
2024/03/06 11:11:55;;;;;;;10.40;6.88;;;18.80;55.90;;;;;;5019405;28;20072;-74
2024/03/06 11:14:24;;;;;;;14.20;8.20;;;17.90;56.50;;;;;;5014434;28;20203;-73
2024/03/06 11:17:09;;;;;;;12.20;7.80;;;16.60;58.20;;;;;;5015034;28;20165;-75
2024/03/06 11:20:00;;;;;;;9.32;6.28;;;15.30;61.10;;;;;;5016258;28;20219;-75
2024/03/06 11:23:08;;;;;;;11.75;6.93;;;14.20;64.10;;;;;;5019557;28;20045;-75
2024/03/06 11:25:50;;;;;;;10.35;6.80;;;13.40;67.10;;;;;;5013143;28;20029;-75
2024/03/06 11:28:18;;;;;;;10.68;6.78;;;12.70;70.00;;;;;;5015958;28;20398;-75
2024/03/06 11:30:47;;;;;;;8.18;5.80;;;12.40;73.80;;;;;;5017546;28;20033;-74
2024/03/06 11:33:16;;;;;;;12.60;6.03;;;12.20;73.00;;;;;;5013334;28;20030;-74
2024/03/06 11:35:48;;;;;;;8.13;5.47;;;12.00;72.20;;;;;;5014782;28;20042;-74
2024/03/06 11:38:21;;;;;;;9.80;6.15;;;12.10;75.00;;;;;;5019028;28;20029;-75
2024/03/06 11:40:49;;;;;;;10.25;5.97;;;12.10;73.20;;;;;;5015242;28;20744;-74
2024/03/06 11:43:26;;;;;;;8.55;5.82;;;12.30;74.40;;;;;;5019350;28;20029;-75
2024/03/06 11:45:52;;;;;;;9.23;5.82;;;12.50;73.40;;;;;;5017135;28;20038;-74
2024/03/06 11:48:20;;;;;;;10.13;5.85;;;12.60;72.70;;;;;;5012601;28;20036;-74
2024/03/06 11:50:46;;;;;;;7.32;4.45;;;12.90;74.20;;;;;;5022211;28;20088;-75
2024/03/06 11:53:13;;;;;;;7.15;4.75;;;12.80;69.40;;;;;;5014204;28;20062;-74
2024/03/06 11:55:39;;;;;;;6.65;4.45;;;12.50;68.90;;;;;;5020244;28;20048;-75
2024/03/06 11:58:07;;;;;;;11.60;5.22;;;12.40;70.90;;;;;;5016536;28;20037;-74
2024/03/06 12:00:33;;;;;;;11.35;7.47;;;12.50;73.40;;;;;;5018113;28;20041;-75
2024/03/06 12:02:59;;;;;;;13.30;7.57;;;12.50;74.30;;;;;;5020218;28;20399;-74
2024/03/06 12:05:27;;;;;;;10.35;6.00;;;12.40;74.70;;;;;;5019226;28;20493;-74
2024/03/06 12:07:53;;;;;;;9.88;6.53;;;12.30;76.40;;;;;;5018768;28;20043;-74
2024/03/06 12:10:19;;;;;;;12.85;6.65;;;12.30;76.80;;;;;;5015085;28;20028;-74
2024/03/06 12:12:45;;;;;;;9.07;6.28;;;12.30;76.60;;;;;;5016307;28;20116;-74
2024/03/06 12:15:11;;;;;;;9.30;5.53;;;12.30;75.00;;;;;;5017428;28;20058;-75
2024/03/06 12:17:51;;;;;;;7.57;5.00;;;12.40;74.20;;;;;;5015675;28;20476;-75
2024/03/06 12:20:18;;;;;;;8.27;4.72;;;12.50;74.60;;;;;;5018142;28;20034;-75
2024/03/06 12:22:55;;;;;;;10.07;5.97;;;12.50;72.50;;;;;;5015178;28;20033;-73
2024/03/06 12:25:26;;;;;;;9.32;5.18;;;12.40;75.10;;;;;;5013591;28;20041;-75
2024/03/06 12:27:54;;;;;;;7.43;5.05;;;12.30;74.60;;;;;;5021207;28;20163;-75
2024/03/06 12:30:22;;;;;;;6.80;4.88;;;12.10;75.00;;;;;;5016499;28;20038;-75
2024/03/06 12:33:04;;;;;;;9.18;5.78;;;12.00;76.00;;;;;;5021745;28;20029;-74
2024/03/06 12:35:31;;;;;;;10.27;5.68;;;11.90;75.60;;;;;;5018494;28;20048;-71
2024/03/06 12:37:57;;;;;;;13.77;6.97;;;11.90;77.60;;;;;;5009635;28;20025;-75
2024/03/06 12:40:24;;;;;;;13.35;7.18;;;12.00;80.70;;;;;;5015912;28;20056;-75